Time;durP1;ratioP1;P1;durP2;ratioP2;P2;SDS_P1;SDS_P2;PMS_P1;PMS_P2;Temp;Humidity;BMP_temperature;BMP_pressure;BME280_temperature;BME280_humidity;BME280_pressure;Samples;Min_cycle;Max_cycle;Signal;HPM_P1;HPM_P2
2021/08/22 00:01:04;;;;;;;25.80;10.70;;;;;;;;;;5093105;28;20266;-66
2021/08/22 00:03:30;;;;;;;17.80;10.83;;;;;;;;;;5093194;28;20034;-66
2021/08/22 00:05:55;;;;;;;19.00;9.50;;;;;;;;;;5093156;28;20724;-65
2021/08/22 00:08:20;;;;;;;18.67;9.80;;;;;;;;;;5092758;28;20269;-68
2021/08/22 00:10:45;;;;;;;17.38;9.70;;;;;;;;;;5111973;28;20682;-68
2021/08/22 00:13:10;;;;;;;15.77;9.57;;;;;;;;;;5111886;28;20031;-66
2021/08/22 00:15:36;;;;;;;22.20;11.50;;;;;;;;;;5112513;28;20731;-66
2021/08/22 00:18:01;;;;;;;20.67;8.97;;;;;;;;;;5113267;28;20305;-67
2021/08/22 00:20:26;;;;;;;16.02;8.85;;;;;;;;;;5113136;28;20268;-66
2021/08/22 00:22:52;;;;;;;14.00;8.57;;;;;;;;;;5112547;28;20059;-68
2021/08/22 00:25:17;;;;;;;16.38;8.32;;;;;;;;;;5112746;28;20306;-66
2021/08/22 00:27:42;;;;;;;17.27;7.90;;;;;;;;;;5112534;28;20024;-66
2021/08/22 00:30:08;;;;;;;16.55;8.95;;;;;;;;;;5113085;28;20477;-66
2021/08/22 00:32:33;;;;;;;14.95;8.57;;;;;;;;;;5112814;28;20019;-65
2021/08/22 00:34:58;;;;;;;15.07;8.93;;;;;;;;;;5113123;28;20098;-66
2021/08/22 00:37:26;;;;;;;18.90;8.70;;;;;;;;;;5112617;28;20019;-67
2021/08/22 00:39:53;;;;;;;13.98;8.73;;;;;;;;;;5112644;28;20256;-65
2021/08/22 00:42:18;;;;;;;17.00;8.80;;;;;;;;;;5112277;28;20380;-65
2021/08/22 00:44:43;;;;;;;15.23;7.97;;;;;;;;;;5112623;28;20019;-65
2021/08/22 00:47:08;;;;;;;16.65;9.05;;;;;;;;;;5112798;28;20020;-65
2021/08/22 00:49:34;;;;;;;17.73;7.97;;;;;;;;;;5109233;28;20522;-66
2021/08/22 00:51:59;;;;;;;16.57;8.83;;;;;;;;;;5107908;28;20272;-67
2021/08/22 00:54:24;;;;;;;11.93;8.10;;;;;;;;;;5112463;28;20281;-67
2021/08/22 00:56:51;;;;;;;14.60;9.13;;;;;;;;;;5112392;28;20626;-65
2021/08/22 00:59:17;;;;;;;14.70;7.85;;;;;;;;;;5112282;28;20027;-65
2021/08/22 01:01:44;;;;;;;16.10;8.50;;;;;;;;;;5112213;28;20077;-65
2021/08/22 01:04:39;;;;;;;18.45;8.82;;;;;;;;;;5112217;28;20102;-65
2021/08/22 01:07:11;;;;;;;14.13;8.93;;;;;;;;;;5093986;28;20035;-65
2021/08/22 01:09:39;;;;;;;15.25;8.38;;;;;;;;;;5091627;28;20088;-65
2021/08/22 01:12:06;;;;;;;20.25;8.35;;;;;;;;;;5091813;28;20012;-66
2021/08/22 01:14:35;;;;;;;14.15;8.30;;;;;;;;;;5098762;28;20050;-67
2021/08/22 01:17:01;;;;;;;13.55;8.15;;;;;;;;;;5112244;28;20095;-66
2021/08/22 01:19:36;;;;;;;13.50;8.57;;;;;;;;;;5112341;28;20098;-66
2021/08/22 01:22:03;;;;;;;14.93;9.85;;;;;;;;;;5111504;28;20411;-68
2021/08/22 01:24:29;;;;;;;17.13;9.07;;;;;;;;;;5111855;28;20427;-67
2021/08/22 01:26:55;;;;;;;16.67;9.98;;;;;;;;;;5111971;28;20470;-66
2021/08/22 01:29:23;;;;;;;16.38;9.85;;;;;;;;;;5111780;28;20020;-66
2021/08/22 01:31:49;;;;;;;14.25;8.23;;;;;;;;;;5111162;28;20039;-65
2021/08/22 01:34:15;;;;;;;19.90;9.02;;;;;;;;;;5111718;28;20167;-66
2021/08/22 01:36:41;;;;;;;16.55;8.23;;;;;;;;;;5111005;28;20042;-65
2021/08/22 01:39:06;;;;;;;17.92;9.23;;;;;;;;;;5111044;28;20442;-65
2021/08/22 01:41:31;;;;;;;13.55;8.10;;;;;;;;;;5111272;28;20369;-66
2021/08/22 01:43:57;;;;;;;10.70;7.63;;;;;;;;;;5111464;28;20096;-66
2021/08/22 01:46:23;;;;;;;16.50;8.05;;;;;;;;;;5111579;28;20388;-65
2021/08/22 01:48:49;;;;;;;12.85;8.20;;;;;;;;;;5110896;28;20084;-67
2021/08/22 01:51:14;;;;;;;13.75;8.30;;;;;;;;;;5111278;28;20447;-67
2021/08/22 01:53:39;;;;;;;23.30;8.10;;;;;;;;;;5111188;28;20047;-67
2021/08/22 01:56:05;;;;;;;12.98;7.78;;;;;;;;;;5111629;28;20332;-67
2021/08/22 01:58:30;;;;;;;14.27;7.30;;;;;;;;;;5111235;28;20103;-67
2021/08/22 02:00:55;;;;;;;18.73;8.13;;;;;;;;;;5111347;28;20462;-67
2021/08/22 02:03:29;;;;;;;13.02;7.13;;;;;;;;;;5110640;28;20250;-67
2021/08/22 02:05:55;;;;;;;13.50;7.80;;;;;;;;;;5110677;28;20106;-66
2021/08/22 02:08:21;;;;;;;15.15;8.13;;;;;;;;;;5110723;28;20544;-66
2021/08/22 02:10:50;;;;;;;11.35;6.90;;;;;;;;;;5111002;28;20068;-66
2021/08/22 02:13:17;;;;;;;13.10;8.15;;;;;;;;;;5110888;28;20016;-67
2021/08/22 02:15:43;;;;;;;15.05;8.52;;;;;;;;;;5110955;28;20054;-67
2021/08/22 02:18:15;;;;;;;14.00;7.78;;;;;;;;;;5111485;28;20069;-67
2021/08/22 02:20:41;;;;;;;11.65;8.55;;;;;;;;;;5110288;28;20030;-66
2021/08/22 02:23:07;;;;;;;14.60;8.57;;;;;;;;;;5110645;28;20027;-67
2021/08/22 02:25:32;;;;;;;14.65;8.40;;;;;;;;;;5110877;28;20018;-67
2021/08/22 02:27:58;;;;;;;12.55;9.10;;;;;;;;;;5111042;28;20030;-67
2021/08/22 02:30:23;;;;;;;19.55;9.00;;;;;;;;;;5110930;28;20050;-68
2021/08/22 02:32:48;;;;;;;15.77;9.60;;;;;;;;;;5110544;28;20130;-67
2021/08/22 02:35:17;;;;;;;18.00;10.10;;;;;;;;;;5110683;28;20148;-67
2021/08/22 02:37:42;;;;;;;20.75;10.05;;;;;;;;;;5110583;28;20253;-67
2021/08/22 02:40:08;;;;;;;23.25;11.10;;;;;;;;;;5110920;28;20377;-67
2021/08/22 02:42:33;;;;;;;16.48;12.38;;;;;;;;;;5117374;22;20074;-70
2021/08/22 02:44:58;;;;;;;21.60;12.30;;;;;;;;;;5065532;28;20025;-70
2021/08/22 02:47:23;;;;;;;24.03;14.10;;;;;;;;;;5050112;28;20071;-70
2021/08/22 02:49:48;;;;;;;24.70;11.73;;;;;;;;;;5064783;28;20432;-70
2021/08/22 02:52:13;;;;;;;16.83;11.13;;;;;;;;;;5073638;28;20274;-70
2021/08/22 02:54:39;;;;;;;18.13;11.80;;;;;;;;;;5074051;28;20274;-70
2021/08/22 02:57:04;;;;;;;18.00;11.20;;;;;;;;;;5073845;28;20350;-70
2021/08/22 02:59:29;;;;;;;16.40;10.83;;;;;;;;;;5074081;28;20063;-69
2021/08/22 03:01:54;;;;;;;23.40;11.60;;;;;;;;;;5073900;28;20340;-70
2021/08/22 03:04:19;;;;;;;20.77;11.77;;;;;;;;;;5073985;28;20449;-69
2021/08/22 03:06:45;;;;;;;26.38;13.85;;;;;;;;;;5073509;28;20369;-70
2021/08/22 03:09:10;;;;;;;21.58;12.90;;;;;;;;;;5073461;28;20035;-69
2021/08/22 03:11:36;;;;;;;25.63;14.10;;;;;;;;;;5073705;28;20095;-70
2021/08/22 03:14:01;;;;;;;23.38;14.77;;;;;;;;;;5074019;28;20471;-70
2021/08/22 03:16:26;;;;;;;19.25;13.45;;;;;;;;;;5073941;28;20422;-70
2021/08/22 03:18:52;;;;;;;18.00;13.18;;;;;;;;;;5073753;28;20463;-70
2021/08/22 03:21:17;;;;;;;21.47;13.73;;;;;;;;;;5073599;28;20483;-70
2021/08/22 03:23:42;;;;;;;17.40;12.00;;;;;;;;;;5055164;28;20274;-70
2021/08/22 03:26:08;;;;;;;18.43;10.17;;;;;;;;;;5073448;28;20024;-69
2021/08/22 03:28:33;;;;;;;16.52;9.98;;;;;;;;;;5073111;28;20278;-69
2021/08/22 03:30:59;;;;;;;12.90;9.07;;;;;;;;;;5073479;28;20017;-69
2021/08/22 03:33:24;;;;;;;17.83;9.85;;;;;;;;;;5072984;28;20386;-70
2021/08/22 03:35:49;;;;;;;20.60;10.37;;;;;;;;;;5062242;28;20029;-69
2021/08/22 03:38:15;;;;;;;18.60;9.97;;;;;;;;;;5073089;28;20321;-70
2021/08/22 03:40:40;;;;;;;20.83;10.15;;;;;;;;;;5073144;28;20355;-70
2021/08/22 03:43:05;;;;;;;24.83;11.57;;;;;;;;;;5060821;28;20029;-70
2021/08/22 03:45:30;;;;;;;23.17;11.13;;;;;;;;;;5053242;28;20325;-70
2021/08/22 03:47:55;;;;;;;23.00;11.82;;;;;;;;;;5053114;28;20772;-69
2021/08/22 03:50:20;;;;;;;24.33;13.17;;;;;;;;;;5052857;28;20453;-70
2021/08/22 03:52:48;;;;;;;23.73;12.80;;;;;;;;;;5052418;28;20291;-70
2021/08/22 03:55:13;;;;;;;26.40;15.10;;;;;;;;;;5052082;28;20317;-70
2021/08/22 03:57:38;;;;;;;27.52;14.52;;;;;;;;;;5052396;28;20021;-69
2021/08/22 04:00:04;;;;;;;27.33;16.60;;;;;;;;;;5052064;28;20031;-69
2021/08/22 04:02:29;;;;;;;27.77;16.40;;;;;;;;;;5051403;28;20733;-70
2021/08/22 04:04:54;;;;;;;26.77;15.93;;;;;;;;;;5052445;28;20033;-70
2021/08/22 04:07:19;;;;;;;26.55;16.02;;;;;;;;;;5052616;28;20258;-69
2021/08/22 04:09:44;;;;;;;27.48;17.15;;;;;;;;;;5052500;28;20047;-70
2021/08/22 04:12:10;;;;;;;30.98;18.65;;;;;;;;;;5051586;28;20390;-70
2021/08/22 04:14:35;;;;;;;32.50;18.05;;;;;;;;;;5052311;28;20082;-70
2021/08/22 04:17:00;;;;;;;28.70;18.87;;;;;;;;;;5052029;28;20040;-69
2021/08/22 04:19:25;;;;;;;29.55;18.10;;;;;;;;;;5052248;28;20317;-70
2021/08/22 04:21:51;;;;;;;29.63;19.20;;;;;;;;;;5051846;28;20021;-70
2021/08/22 04:24:16;;;;;;;33.45;19.15;;;;;;;;;;5052288;28;20340;-70
2021/08/22 04:26:41;;;;;;;32.92;18.08;;;;;;;;;;5051046;28;20025;-70
2021/08/22 04:29:08;;;;;;;34.70;19.00;;;;;;;;;;5033870;28;20037;-70
2021/08/22 04:31:33;;;;;;;32.33;18.85;;;;;;;;;;5051970;28;20021;-70
2021/08/22 04:33:58;;;;;;;35.17;17.55;;;;;;;;;;5052173;28;20453;-70
2021/08/22 04:36:23;;;;;;;32.23;18.03;;;;;;;;;;5052065;28;20519;-70
2021/08/22 04:38:48;;;;;;;28.27;16.88;;;;;;;;;;5051852;28;20021;-70
2021/08/22 04:41:20;;;;;;;32.43;17.47;;;;;;;;;;5052233;28;20034;-70
2021/08/22 04:43:45;;;;;;;36.33;17.95;;;;;;;;;;5051499;28;20067;-71
2021/08/22 04:46:10;;;;;;;28.05;16.98;;;;;;;;;;5051745;28;20283;-70
2021/08/22 04:48:36;;;;;;;28.50;17.90;;;;;;;;;;5051302;28;20440;-70
2021/08/22 04:51:01;;;;;;;28.07;16.97;;;;;;;;;;5051638;28;20094;-70
2021/08/22 04:53:26;;;;;;;27.50;17.23;;;;;;;;;;5051369;28;20517;-70
2021/08/22 04:55:51;;;;;;;30.47;18.80;;;;;;;;;;5051252;28;20325;-70
2021/08/22 04:58:16;;;;;;;36.72;18.80;;;;;;;;;;5051645;28;20735;-70
2021/08/22 05:00:42;;;;;;;34.23;18.77;;;;;;;;;;5051148;28;20474;-70
2021/08/22 05:03:07;;;;;;;32.17;19.10;;;;;;;;;;5051009;28;20267;-70
2021/08/22 05:05:32;;;;;;;35.27;19.20;;;;;;;;;;5051383;28;20025;-70
2021/08/22 05:07:57;;;;;;;35.50;18.33;;;;;;;;;;5051516;28;20258;-70
2021/08/22 05:10:23;;;;;;;34.88;18.45;;;;;;;;;;5051356;28;20831;-70
2021/08/22 05:12:48;;;;;;;37.95;19.02;;;;;;;;;;5050418;28;20239;-70
2021/08/22 05:15:13;;;;;;;33.57;18.17;;;;;;;;;;5051627;28;20067;-70
2021/08/22 05:17:38;;;;;;;36.23;19.47;;;;;;;;;;5050965;28;20267;-70
2021/08/22 05:20:04;;;;;;;34.35;19.00;;;;;;;;;;5033017;28;20626;-70
2021/08/22 05:22:29;;;;;;;35.10;19.80;;;;;;;;;;5051073;28;20035;-70
2021/08/22 05:24:54;;;;;;;45.17;22.55;;;;;;;;;;5050971;28;20029;-70
2021/08/22 05:27:19;;;;;;;46.55;23.13;;;;;;;;;;5051131;28;20029;-70
2021/08/22 05:29:44;;;;;;;36.70;21.17;;;;;;;;;;5050779;28;20067;-70
2021/08/22 05:32:10;;;;;;;39.57;21.50;;;;;;;;;;5050562;28;20366;-70
2021/08/22 05:34:35;;;;;;;35.72;19.50;;;;;;;;;;5050273;28;20271;-70
2021/08/22 05:37:00;;;;;;;35.30;20.75;;;;;;;;;;5050606;28;20457;-70
2021/08/22 05:39:25;;;;;;;37.97;19.70;;;;;;;;;;5050678;28;20430;-70
2021/08/22 05:41:51;;;;;;;39.55;19.23;;;;;;;;;;5050403;28;20017;-70
2021/08/22 05:44:16;;;;;;;25.88;13.13;;;;;;;;;;5050630;28;20482;-70
2021/08/22 05:46:41;;;;;;;34.23;16.77;;;;;;;;;;5050589;28;20028;-70
2021/08/22 05:49:06;;;;;;;29.30;16.33;;;;;;;;;;5049990;28;20645;-70
2021/08/22 05:51:31;;;;;;;30.27;15.90;;;;;;;;;;5050293;28;20314;-70
2021/08/22 05:53:57;;;;;;;28.00;15.80;;;;;;;;;;5050429;28;20282;-70
2021/08/22 05:56:22;;;;;;;26.98;15.18;;;;;;;;;;5050605;28;20029;-70
2021/08/22 05:58:48;;;;;;;28.83;16.33;;;;;;;;;;5050448;28;20053;-70
2021/08/22 06:01:14;;;;;;;32.25;16.40;;;;;;;;;;5050417;28;20255;-70
2021/08/22 06:03:39;;;;;;;29.20;15.80;;;;;;;;;;5049980;28;20021;-70
2021/08/22 06:06:05;;;;;;;27.42;17.05;;;;;;;;;;5041830;28;20287;-70
2021/08/22 06:08:31;;;;;;;34.38;15.60;;;;;;;;;;5042572;28;20150;-70
2021/08/22 06:10:56;;;;;;;29.43;20.23;;;;;;;;;;5049860;28;20103;-70
2021/08/22 06:13:21;;;;;;;32.37;17.93;;;;;;;;;;5049286;28;20320;-70
2021/08/22 06:15:46;;;;;;;29.83;17.00;;;;;;;;;;5048709;28;20275;-70
2021/08/22 06:18:12;;;;;;;24.80;16.33;;;;;;;;;;5049848;28;20413;-70
2021/08/22 06:20:37;;;;;;;24.30;15.43;;;;;;;;;;5036822;28;20107;-70
2021/08/22 06:23:02;;;;;;;32.13;15.55;;;;;;;;;;5033293;28;20266;-70
2021/08/22 06:25:27;;;;;;;26.97;15.20;;;;;;;;;;5049978;28;20160;-70
2021/08/22 06:27:52;;;;;;;22.73;13.55;;;;;;;;;;5050328;28;20389;-71
2021/08/22 06:30:18;;;;;;;28.77;14.73;;;;;;;;;;5049866;28;20120;-70
2021/08/22 06:32:43;;;;;;;25.58;16.00;;;;;;;;;;5049701;28;20305;-70
2021/08/22 06:35:08;;;;;;;28.63;17.87;;;;;;;;;;5050260;28;20027;-70
2021/08/22 06:37:34;;;;;;;25.67;16.55;;;;;;;;;;5050100;28;20282;-70
2021/08/22 06:39:59;;;;;;;31.55;16.08;;;;;;;;;;5032391;28;20021;-70
2021/08/22 06:42:25;;;;;;;32.60;17.73;;;;;;;;;;5049667;28;20404;-70
2021/08/22 06:44:50;;;;;;;24.30;15.18;;;;;;;;;;5050084;28;20013;-70
2021/08/22 06:47:16;;;;;;;21.65;13.00;;;;;;;;;;5049723;28;20445;-70
2021/08/22 06:49:41;;;;;;;20.60;11.97;;;;;;;;;;5049156;28;20051;-70
2021/08/22 06:52:07;;;;;;;19.75;11.80;;;;;;;;;;5049808;28;20733;-70
2021/08/22 06:54:32;;;;;;;23.27;12.07;;;;;;;;;;5049910;28;20040;-70
2021/08/22 06:56:57;;;;;;;23.23;12.30;;;;;;;;;;5032118;28;20021;-70
2021/08/22 06:59:23;;;;;;;26.95;13.02;;;;;;;;;;5049962;28;20020;-71
2021/08/22 07:01:48;;;;;;;21.17;12.60;;;;;;;;;;5049626;28;20605;-70
2021/08/22 07:04:13;;;;;;;23.47;13.00;;;;;;;;;;5049506;28;20420;-70
2021/08/22 07:06:39;;;;;;;24.40;13.07;;;;;;;;;;5031841;28;20260;-70
2021/08/22 07:09:04;;;;;;;18.65;11.13;;;;;;;;;;5049480;28;20025;-70
2021/08/22 07:11:29;;;;;;;19.45;10.45;;;;;;;;;;5049589;28;20025;-70
2021/08/22 07:13:54;;;;;;;20.27;12.47;;;;;;;;;;5049634;28;20093;-70
2021/08/22 07:16:19;;;;;;;17.92;10.95;;;;;;;;;;5050134;28;20251;-70
2021/08/22 07:18:45;;;;;;;22.52;12.73;;;;;;;;;;5049729;28;20029;-70
2021/08/22 07:21:10;;;;;;;23.17;14.07;;;;;;;;;;5049632;28;20028;-70
2021/08/22 07:23:35;;;;;;;27.23;14.13;;;;;;;;;;5048927;28;20052;-70
2021/08/22 07:26:00;;;;;;;20.63;13.10;;;;;;;;;;5049537;28;20263;-70
2021/08/22 07:28:25;;;;;;;26.40;11.23;;;;;;;;;;5049073;28;20029;-70
2021/08/22 07:30:50;;;;;;;17.58;10.30;;;;;;;;;;5049480;28;20806;-70
2021/08/22 07:33:16;;;;;;;18.08;9.27;;;;;;;;;;5049348;28;20020;-70
2021/08/22 07:35:41;;;;;;;17.10;10.23;;;;;;;;;;5051139;28;20016;-70
2021/08/22 07:38:06;;;;;;;24.88;10.23;;;;;;;;;;5052933;28;20286;-70
2021/08/22 07:40:32;;;;;;;17.52;10.07;;;;;;;;;;5053065;28;20031;-70
2021/08/22 07:42:57;;;;;;;22.95;10.30;;;;;;;;;;5052726;28;20120;-70
2021/08/22 07:45:22;;;;;;;14.97;8.87;;;;;;;;;;5053178;28;20025;-70
2021/08/22 07:47:47;;;;;;;17.83;9.95;;;;;;;;;;5053043;28;20750;-71
2021/08/22 07:50:12;;;;;;;19.15;10.20;;;;;;;;;;5053101;28;20395;-70
2021/08/22 07:52:38;;;;;;;21.52;10.50;;;;;;;;;;5052143;28;20097;-70
2021/08/22 07:55:03;;;;;;;17.97;8.30;;;;;;;;;;5052724;28;20021;-70
2021/08/22 07:57:30;;;;;;;20.73;9.93;;;;;;;;;;5052858;28;20252;-70
2021/08/22 07:59:55;;;;;;;20.90;10.05;;;;;;;;;;5053081;28;20017;-70
2021/08/22 08:02:20;;;;;;;14.77;8.17;;;;;;;;;;5052418;28;20116;-71
2021/08/22 08:04:45;;;;;;;15.98;8.73;;;;;;;;;;5052755;28;20281;-70
2021/08/22 08:07:10;;;;;;;15.83;9.37;;;;;;;;;;5052294;28;20032;-70
2021/08/22 08:09:36;;;;;;;19.00;9.47;;;;;;;;;;5051790;28;20370;-71
2021/08/22 08:12:01;;;;;;;17.95;8.02;;;;;;;;;;5033539;28;20263;-70
2021/08/22 08:14:26;;;;;;;10.80;6.60;;;;;;;;;;5052745;28;20061;-70
2021/08/22 08:16:51;;;;;;;12.50;6.18;;;;;;;;;;5052742;28;20256;-71
2021/08/22 08:19:16;;;;;;;15.27;6.97;;;;;;;;;;5052821;28;20462;-70
2021/08/22 08:21:42;;;;;;;8.95;6.30;;;;;;;;;;5052145;28;20090;-70
2021/08/22 08:24:07;;;;;;;9.00;5.87;;;;;;;;;;5052484;28;20025;-71
2021/08/22 08:26:32;;;;;;;9.85;6.38;;;;;;;;;;5052467;28;20263;-70
2021/08/22 08:28:57;;;;;;;10.13;6.23;;;;;;;;;;5052565;28;20025;-70
2021/08/22 08:31:22;;;;;;;12.80;6.47;;;;;;;;;;5052369;28;20255;-70
2021/08/22 08:33:48;;;;;;;9.88;5.97;;;;;;;;;;5052051;28;20114;-70
2021/08/22 08:36:13;;;;;;;8.57;5.97;;;;;;;;;;5051655;28;20032;-70
2021/08/22 08:38:38;;;;;;;9.70;6.63;;;;;;;;;;5052296;28;20315;-70
2021/08/22 08:41:04;;;;;;;9.00;6.33;;;;;;;;;;5052413;28;20276;-70
2021/08/22 08:43:29;;;;;;;9.23;5.60;;;;;;;;;;5101851;22;20308;-66
2021/08/22 08:46:08;;;;;;;10.05;6.43;;;;;;;;;;5079654;28;20039;-67
2021/08/22 08:48:33;;;;;;;18.67;7.90;;;;;;;;;;5076108;28;20019;-65
2021/08/22 08:51:10;;;;;;;9.65;6.75;;;;;;;;;;5092398;28;20539;-66
2021/08/22 08:53:38;;;;;;;14.70;10.10;;;;;;;;;;5092052;28;20521;-64
2021/08/22 08:56:08;;;;;;;12.40;7.82;;;;;;;;;;5092448;28;20687;-67
2021/08/22 08:58:33;;;;;;;15.70;8.15;;;;;;;;;;5092041;28;20027;-67
2021/08/22 09:00:58;;;;;;;10.40;6.77;;;;;;;;;;5085375;28;20394;-67
2021/08/22 09:03:24;;;;;;;10.57;6.83;;;;;;;;;;5084527;28;20331;-67
2021/08/22 09:05:52;;;;;;;9.50;6.22;;;;;;;;;;5092165;28;20107;-68
2021/08/22 09:08:35;;;;;;;13.65;7.68;;;;;;;;;;5091563;28;20024;-67
2021/08/22 09:11:01;;;;;;;10.00;6.65;;;;;;;;;;5091539;28;20073;-67
2021/08/22 09:13:58;;;;;;;8.07;6.25;;;;;;;;;;5091040;28;20024;-67
2021/08/22 09:16:42;;;;;;;10.00;6.53;;;;;;;;;;5082787;28;20028;-67
2021/08/22 09:19:26;;;;;;;13.07;6.70;;;;;;;;;;5082587;28;20381;-67
2021/08/22 09:22:10;;;;;;;9.20;6.00;;;;;;;;;;5091203;28;20449;-67
2021/08/22 09:24:41;;;;;;;13.13;7.32;;;;;;;;;;5091338;28;20368;-67
2021/08/22 09:27:24;;;;;;;12.35;7.60;;;;;;;;;;5091337;28;20378;-67
2021/08/22 09:30:08;;;;;;;13.23;7.55;;;;;;;;;;5090437;28;20020;-68
2021/08/22 09:32:52;;;;;;;8.45;6.00;;;;;;;;;;5090243;28;20028;-67
2021/08/22 09:35:26;;;;;;;15.75;7.85;;;;;;;;;;5085529;28;20020;-66
2021/08/22 09:38:00;;;;;;;12.90;7.40;;;;;;;;;;5090077;28;20480;-67
2021/08/22 09:40:45;;;;;;;15.05;6.90;;;;;;;;;;5091194;28;20016;-66
2021/08/22 09:43:11;;;;;;;11.40;7.63;;;;;;;;;;5048762;28;20566;-67
2021/08/22 09:46:05;;;;;;;12.23;6.70;;;;;;;;;;5070894;28;20100;-67
2021/08/22 09:48:49;;;;;;;15.65;6.75;;;;;;;;;;5050187;28;20037;-67
2021/08/22 09:51:26;;;;;;;14.52;4.90;;;;;;;;;;5070746;28;20021;-67
2021/08/22 09:54:10;;;;;;;9.80;6.30;;;;;;;;;;5070464;28;20478;-67
2021/08/22 09:56:54;;;;;;;12.35;7.50;;;;;;;;;;5071197;28;20115;-67
2021/08/22 09:59:37;;;;;;;11.02;6.80;;;;;;;;;;5069712;28;20028;-67
2021/08/22 10:02:20;;;;;;;20.88;5.57;;;;;;;;;;5070434;28;20056;-67
2021/08/22 10:05:04;;;;;;;5.30;3.53;;;;;;;;;;5070768;28;20051;-67
2021/08/22 10:07:32;;;;;;;10.15;7.20;;;;;;;;;;5070521;28;20016;-67
2021/08/22 10:10:02;;;;;;;10.45;6.50;;;;;;;;;;5070587;28;20107;-67
2021/08/22 10:12:27;;;;;;;10.52;6.78;;;;;;;;;;5069736;28;20095;-66
2021/08/22 10:14:53;;;;;;;15.27;6.85;;;;;;;;;;5070448;28;20107;-66
2021/08/22 10:17:27;;;;;;;11.88;7.13;;;;;;;;;;5070631;28;20028;-68
2021/08/22 10:19:53;;;;;;;13.32;6.97;;;;;;;;;;5070623;28;20027;-67
2021/08/22 10:22:19;;;;;;;16.38;8.02;;;;;;;;;;5070184;28;20016;-67
2021/08/22 10:24:45;;;;;;;9.45;6.70;;;;;;;;;;5070100;28;20024;-67
2021/08/22 10:27:17;;;;;;;13.23;7.15;;;;;;;;;;5070233;28;20035;-67
2021/08/22 10:29:48;;;;;;;13.50;6.85;;;;;;;;;;5069624;28;20038;-67
2021/08/22 10:32:14;;;;;;;12.55;5.95;;;;;;;;;;5069697;28;20028;-67
2021/08/22 10:34:40;;;;;;;8.68;6.10;;;;;;;;;;5069605;28;20446;-67
2021/08/22 10:37:25;;;;;;;7.78;5.47;;;;;;;;;;5070156;28;20063;-67
2021/08/22 10:39:50;;;;;;;11.77;5.93;;;;;;;;;;5069853;28;20040;-66
2021/08/22 10:42:19;;;;;;;8.23;5.15;;;;;;;;;;5074955;28;20032;-68
2021/08/22 10:44:45;;;;;;;8.38;5.45;;;;;;;;;;5110522;28;20495;-66
2021/08/22 10:47:33;;;;;;;8.48;5.03;;;;;;;;;;5110919;28;20095;-68
2021/08/22 10:49:58;;;;;;;9.88;4.80;;;;;;;;;;5109733;28;20055;-67
2021/08/22 10:52:26;;;;;;;9.07;5.18;;;;;;;;;;5110309;28;20058;-66
2021/08/22 10:55:10;;;;;;;10.32;4.95;;;;;;;;;;5110878;28;20023;-65
2021/08/22 10:57:44;;;;;;;6.22;4.55;;;;;;;;;;5110300;28;20020;-67
2021/08/22 11:00:26;;;;;;;9.60;4.38;;;;;;;;;;5110567;28;20473;-67
2021/08/22 11:02:54;;;;;;;7.95;4.47;;;;;;;;;;5110230;28;20032;-65
2021/08/22 11:05:20;;;;;;;10.48;3.88;;;;;;;;;;5109751;28;20022;-65
2021/08/22 11:07:46;;;;;;;7.80;3.58;;;;;;;;;;5110752;28;20028;-65
2021/08/22 11:10:15;;;;;;;6.13;3.75;;;;;;;;;;5111905;28;20054;-65
2021/08/22 11:12:40;;;;;;;8.30;3.85;;;;;;;;;;5114346;28;20047;-66
2021/08/22 11:15:06;;;;;;;7.90;3.83;;;;;;;;;;5114789;28;20055;-65
2021/08/22 11:17:31;;;;;;;6.60;4.15;;;;;;;;;;5113856;28;20111;-65
2021/08/22 11:20:13;;;;;;;6.47;3.70;;;;;;;;;;5114463;28;20024;-65
2021/08/22 11:22:39;;;;;;;10.27;3.22;;;;;;;;;;5113790;28;20016;-65
2021/08/22 11:25:05;;;;;;;7.07;3.38;;;;;;;;;;5114307;28;20073;-65
2021/08/22 11:27:30;;;;;;;15.60;3.75;;;;;;;;;;5113778;28;20028;-65
2021/08/22 11:29:56;;;;;;;5.07;3.08;;;;;;;;;;5114180;28;20110;-67
2021/08/22 11:32:22;;;;;;;5.50;3.20;;;;;;;;;;5114015;28;20019;-67
2021/08/22 11:34:47;;;;;;;9.27;3.90;;;;;;;;;;5113970;28;20470;-65
2021/08/22 11:37:14;;;;;;;7.80;3.40;;;;;;;;;;5114163;28;20045;-65
2021/08/22 11:39:39;;;;;;;8.45;3.25;;;;;;;;;;5114179;28;20390;-65
2021/08/22 11:42:04;;;;;;;5.37;3.10;;;;;;;;;;5113273;28;20103;-67
2021/08/22 11:44:29;;;;;;;5.57;3.07;;;;;;;;;;5114042;28;20524;-67
2021/08/22 11:46:56;;;;;;;11.77;4.03;;;;;;;;;;5114042;28;20250;-65
2021/08/22 11:49:21;;;;;;;19.00;3.70;;;;;;;;;;5113953;28;20384;-66
2021/08/22 11:51:50;;;;;;;9.00;3.10;;;;;;;;;;5113757;28;20090;-66
2021/08/22 11:54:15;;;;;;;17.48;4.70;;;;;;;;;;5113888;28;20466;-66
2021/08/22 11:56:41;;;;;;;7.90;3.22;;;;;;;;;;5113128;28;20030;-65
2021/08/22 11:59:21;;;;;;;7.20;3.47;;;;;;;;;;5113525;28;20363;-66
2021/08/22 12:01:46;;;;;;;11.15;3.63;;;;;;;;;;5113702;28;20027;-69
2021/08/22 12:04:17;;;;;;;11.73;3.50;;;;;;;;;;5113365;28;20090;-66
2021/08/22 12:06:42;;;;;;;6.20;3.55;;;;;;;;;;5113558;28;20417;-67
2021/08/22 12:09:16;;;;;;;7.32;3.60;;;;;;;;;;5113520;28;20035;-66
2021/08/22 12:11:41;;;;;;;7.88;3.40;;;;;;;;;;5113209;28;20482;-66
2021/08/22 12:14:16;;;;;;;8.25;2.95;;;;;;;;;;5113265;28;20020;-67
2021/08/22 12:17:03;;;;;;;8.18;3.08;;;;;;;;;;5113544;28;20012;-66
2021/08/22 12:19:29;;;;;;;8.68;3.05;;;;;;;;;;5113246;28;20080;-67
2021/08/22 12:21:55;;;;;;;7.53;2.75;;;;;;;;;;5112117;28;20031;-66
2021/08/22 12:24:21;;;;;;;6.05;2.85;;;;;;;;;;5113690;28;20098;-65
2021/08/22 12:26:57;;;;;;;11.13;3.50;;;;;;;;;;5099498;28;20027;-66
2021/08/22 12:29:32;;;;;;;9.65;4.22;;;;;;;;;;5092928;28;20074;-67
2021/08/22 12:32:11;;;;;;;10.50;2.97;;;;;;;;;;5094693;28;20493;-68
2021/08/22 12:34:40;;;;;;;9.55;3.35;;;;;;;;;;5094091;28;20020;-68
2021/08/22 12:37:13;;;;;;;10.73;3.25;;;;;;;;;;5112735;28;20015;-68
2021/08/22 12:39:38;;;;;;;9.65;3.70;;;;;;;;;;5112527;28;20027;-67
2021/08/22 12:42:03;;;;;;;9.20;3.55;;;;;;;;;;5112140;28;20781;-67
2021/08/22 12:44:29;;;;;;;17.63;3.63;;;;;;;;;;5112604;28;20035;-67
2021/08/22 12:46:58;;;;;;;9.18;3.25;;;;;;;;;;5112295;28;20264;-67
2021/08/22 12:49:23;;;;;;;11.13;3.15;;;;;;;;;;5112213;28;20030;-68
2021/08/22 12:51:53;;;;;;;10.35;3.10;;;;;;;;;;5112285;28;20028;-68
2021/08/22 12:54:19;;;;;;;5.88;2.58;;;;;;;;;;5112117;28;20034;-68
2021/08/22 12:56:44;;;;;;;7.75;3.15;;;;;;;;;;5112276;28;20023;-66
2021/08/22 12:59:09;;;;;;;10.82;3.35;;;;;;;;;;5112251;28;20023;-66
2021/08/22 13:01:35;;;;;;;6.30;2.60;;;;;;;;;;5111380;28;20027;-67
2021/08/22 13:04:00;;;;;;;9.95;2.90;;;;;;;;;;5111671;28;20265;-67
2021/08/22 13:06:25;;;;;;;5.97;3.00;;;;;;;;;;5112172;28;20507;-67
2021/08/22 13:08:51;;;;;;;8.27;3.55;;;;;;;;;;5112100;28;20260;-66
2021/08/22 13:11:17;;;;;;;10.00;2.70;;;;;;;;;;5111852;28;20031;-66
2021/08/22 13:13:42;;;;;;;11.48;3.08;;;;;;;;;;5111328;28;20033;-67
2021/08/22 13:16:08;;;;;;;8.67;2.70;;;;;;;;;;5111955;28;20019;-66
2021/08/22 13:18:34;;;;;;;6.65;2.50;;;;;;;;;;5111373;28;20791;-66
2021/08/22 13:21:03;;;;;;;4.38;1.92;;;;;;;;;;5111690;28;20023;-65
2021/08/22 13:23:29;;;;;;;15.80;4.33;;;;;;;;;;5111285;28;20024;-67
2021/08/22 13:25:54;;;;;;;7.75;1.98;;;;;;;;;;5111502;28;20023;-67
2021/08/22 13:28:19;;;;;;;5.78;2.33;;;;;;;;;;5111491;28;20073;-66
2021/08/22 13:30:44;;;;;;;5.13;2.35;;;;;;;;;;5111273;28;20024;-67
2021/08/22 13:33:10;;;;;;;3.03;1.50;;;;;;;;;;5110446;28;20015;-64
2021/08/22 13:35:36;;;;;;;2.03;1.17;;;;;;;;;;5111356;28;20266;-66
2021/08/22 13:38:01;;;;;;;2.73;1.20;;;;;;;;;;5111596;28;20039;-66
2021/08/22 13:40:26;;;;;;;4.15;1.90;;;;;;;;;;5108127;28;20254;-66
2021/08/22 13:42:52;;;;;;;6.77;3.37;;;;;;;;;;5090851;28;20036;-66
2021/08/22 13:45:17;;;;;;;7.05;3.17;;;;;;;;;;5091770;28;20265;-67
2021/08/22 13:47:42;;;;;;;7.90;3.90;;;;;;;;;;5091329;28;20077;-66
2021/08/22 13:50:08;;;;;;;7.80;3.83;;;;;;;;;;5091347;28;20357;-67
2021/08/22 13:52:33;;;;;;;7.97;3.38;;;;;;;;;;5105122;28;20416;-66
2021/08/22 13:54:58;;;;;;;7.53;3.80;;;;;;;;;;5111441;28;20034;-66
2021/08/22 13:57:23;;;;;;;9.60;2.88;;;;;;;;;;5110669;28;20250;-66
2021/08/22 13:59:48;;;;;;;3.93;2.83;;;;;;;;;;5111742;28;20059;-66
2021/08/22 14:02:13;;;;;;;5.93;2.90;;;;;;;;;;5110975;28;20529;-67
2021/08/22 14:04:39;;;;;;;10.27;2.50;;;;;;;;;;5110662;28;20027;-66
2021/08/22 14:07:04;;;;;;;3.97;1.97;;;;;;;;;;5111017;28;20261;-67
2021/08/22 14:09:29;;;;;;;5.10;2.40;;;;;;;;;;5111020;28;20635;-67
2021/08/22 14:11:54;;;;;;;4.00;1.83;;;;;;;;;;5111196;28;20347;-67
2021/08/22 14:14:20;;;;;;;2.90;1.67;;;;;;;;;;5111315;28;20115;-66
2021/08/22 14:16:45;;;;;;;2.92;1.70;;;;;;;;;;5111190;28;20018;-67
2021/08/22 14:19:10;;;;;;;5.05;1.90;;;;;;;;;;5110936;28;20039;-66
2021/08/22 14:21:35;;;;;;;4.27;1.80;;;;;;;;;;5110794;28;20047;-66
2021/08/22 14:24:01;;;;;;;6.05;1.80;;;;;;;;;;5110054;28;20266;-66
2021/08/22 14:26:26;;;;;;;6.30;2.15;;;;;;;;;;5110792;28;20119;-67
2021/08/22 14:28:51;;;;;;;5.80;2.20;;;;;;;;;;5111056;28;20024;-66